createdAt,value
2022-09-07T00:00:22.675Z,95.703125
2022-09-07T00:01:32.356Z,96.008301
2022-09-07T00:02:41.048Z,96.105957
2022-09-07T00:03:49.790Z,96.209717
2022-09-07T00:04:57.382Z,96.307373
2022-09-07T00:06:06.050Z,96.307373
2022-09-07T00:07:15.705Z,96.307373
2022-09-07T00:08:23.413Z,96.209717
2022-09-07T00:09:32.064Z,96.209717
2022-09-07T00:10:41.781Z,96.411133
2022-09-07T00:11:50.426Z,96.307373
2022-09-07T00:12:59.099Z,96.209717
2022-09-07T00:14:07.797Z,96.209717
2022-09-07T00:15:17.460Z,96.008301
2022-09-07T00:16:27.182Z,95.904541
2022-09-07T00:17:34.865Z,96.008301
2022-09-07T00:18:46.157Z,96.008301
2022-09-07T00:19:54.185Z,95.904541
2022-09-07T00:21:02.992Z,95.806885
2022-09-07T00:22:12.694Z,95.806885
2022-09-07T00:23:22.429Z,95.904541
2022-09-07T00:24:31.080Z,96.008301
2022-09-07T00:25:40.793Z,96.105957
2022-09-07T00:26:50.503Z,96.209717
2022-09-07T00:27:59.172Z,96.209717
2022-09-07T00:29:08.883Z,96.105957
2022-09-07T00:30:18.545Z,96.105957
2022-09-07T00:31:27.224Z,96.105957
2022-09-07T00:32:35.888Z,96.209717
2022-09-07T00:33:45.552Z,96.209717
2022-09-07T00:34:55.222Z,96.307373
2022-09-07T00:36:03.880Z,96.209717
2022-09-07T00:37:11.530Z,96.105957
2022-09-07T00:38:21.317Z,96.209717
2022-09-07T00:39:29.996Z,96.209717
2022-09-07T00:40:38.617Z,96.307373
2022-09-07T00:41:47.270Z,96.411133
2022-09-07T00:42:55.917Z,96.411133
2022-09-07T00:44:05.611Z,96.411133
2022-09-07T00:45:14.262Z,96.508789
2022-09-07T00:46:22.971Z,96.612549
2022-09-07T00:47:32.578Z,96.710205
2022-09-07T00:48:41.257Z,96.710205
2022-09-07T00:49:49.916Z,96.710205
2022-09-07T00:50:58.574Z,96.612549
2022-09-07T00:52:07.231Z,96.612549
2022-09-07T00:53:16.942Z,96.508789
2022-09-07T00:54:24.639Z,96.508789
2022-09-07T00:55:32.318Z,96.508789
2022-09-07T00:56:41.977Z,96.508789
2022-09-07T00:57:50.640Z,96.508789
2022-09-07T00:59:00.311Z,96.508789
2022-09-07T01:00:09.964Z,96.612549
2022-09-07T01:01:18.739Z,96.813965
2022-09-07T01:02:28.356Z,96.917725
2022-09-07T01:03:35.932Z,96.917725
2022-09-07T01:04:44.613Z,96.813965
2022-09-07T01:05:54.267Z,96.813965
2022-09-07T01:07:02.949Z,96.917725
2022-09-07T01:08:12.595Z,96.813965
2022-09-07T01:09:21.258Z,96.813965
2022-09-07T01:10:29.899Z,97.015381
2022-09-07T01:11:39.547Z,97.015381
2022-09-07T01:12:47.224Z,97.015381
2022-09-07T01:13:54.869Z,96.917725
2022-09-07T01:15:04.534Z,97.015381
2022-09-07T01:16:13.230Z,97.015381
2022-09-07T01:17:21.816Z,96.813965
2022-09-07T01:18:29.698Z,96.917725
2022-09-07T01:19:38.129Z,96.917725
2022-09-07T01:20:47.785Z,97.119141
2022-09-07T01:21:55.432Z,97.320557
2022-09-07T01:23:04.153Z,97.216797
2022-09-07T01:24:13.962Z,97.119141
2022-09-07T01:25:22.596Z,97.216797
2022-09-07T01:26:31.244Z,97.216797
2022-09-07T01:27:40.904Z,97.216797
2022-09-07T01:28:49.550Z,97.119141
2022-09-07T01:29:59.224Z,97.015381
2022-09-07T01:31:06.902Z,97.119141
2022-09-07T01:32:14.512Z,97.320557
2022-09-07T01:33:24.160Z,97.320557
2022-09-07T01:34:32.800Z,97.320557
2022-09-07T01:35:41.504Z,97.418213
2022-09-07T01:36:50.151Z,97.418213
2022-09-07T01:37:59.795Z,97.619629
2022-09-07T01:39:09.444Z,97.821045
2022-09-07T01:40:17.095Z,97.924805
2022-09-07T01:41:25.901Z,98.071289
2022-09-07T01:42:35.549Z,97.967529
2022-09-07T01:43:45.194Z,98.168945
2022-09-07T01:44:53.848Z,98.272705
2022-09-07T01:46:02.536Z,98.577881
2022-09-07T01:47:11.156Z,98.980713
2022-09-07T01:48:19.801Z,99.182129
2022-09-07T01:49:29.440Z,99.078369
2022-09-07T01:50:39.087Z,99.078369
2022-09-07T01:51:46.742Z,98.980713
2022-09-07T01:52:54.395Z,98.876953
2022-09-07T01:54:04.055Z,98.779297
2022-09-07T01:55:13.699Z,98.779297
2022-09-07T01:56:22.346Z,98.779297
2022-09-07T01:57:30.993Z,98.779297
2022-09-07T01:58:39.684Z,98.779297
2022-09-07T01:59:49.331Z,98.779297
2022-09-07T02:00:56.982Z,98.675537
2022-09-07T02:02:04.667Z,98.675537
2022-09-07T02:03:14.272Z,98.675537
2022-09-07T02:04:22.931Z,98.626709
2022-09-07T02:05:32.591Z,98.529053
2022-09-07T02:06:42.243Z,98.529053
2022-09-07T02:07:50.883Z,98.529053
2022-09-07T02:09:00.529Z,98.529053
2022-09-07T02:10:08.208Z,98.529053
2022-09-07T02:11:15.853Z,98.529053
2022-09-07T02:12:25.484Z,98.529053
2022-09-07T02:13:34.121Z,98.529053
2022-09-07T02:14:44.064Z,98.425293
2022-09-07T02:15:53.871Z,98.327637
2022-09-07T02:17:02.350Z,98.223877
2022-09-07T02:18:12.020Z,97.979736
2022-09-07T02:19:20.674Z,97.77832
2022-09-07T02:20:29.315Z,97.674561
2022-09-07T02:21:38.979Z,97.576904
2022-09-07T02:22:48.632Z,97.473145
2022-09-07T02:23:57.285Z,97.271729
2022-09-07T02:25:05.928Z,97.174072
2022-09-07T02:26:15.567Z,97.027588
2022-09-07T02:27:25.230Z,96.722412
2022-09-07T02:28:33.874Z,96.826172
2022-09-07T02:29:41.524Z,96.618652
2022-09-07T02:30:51.325Z,96.618652
2022-09-07T02:32:00.895Z,96.618652
2022-09-07T02:33:09.557Z,96.31958
2022-09-07T02:34:19.200Z,96.31958
2022-09-07T02:35:28.857Z,96.118164
2022-09-07T02:36:38.531Z,96.118164
2022-09-07T02:37:46.177Z,96.014404
2022-09-07T02:38:54.832Z,96.014404
2022-09-07T02:40:04.588Z,95.916748
2022-09-07T02:41:13.179Z,96.014404
2022-09-07T02:42:21.813Z,96.118164
2022-09-07T02:43:31.470Z,95.916748
2022-09-07T02:44:40.234Z,95.715332
2022-09-07T02:45:49.906Z,95.715332
2022-09-07T02:46:57.524Z,95.812988
2022-09-07T02:48:05.156Z,95.715332
2022-09-07T02:49:14.845Z,95.715332
2022-09-07T02:50:22.515Z,95.812988
2022-09-07T02:51:31.152Z,95.861816
2022-09-07T02:52:39.798Z,95.959473
2022-09-07T02:53:48.427Z,95.959473
2022-09-07T02:54:58.081Z,95.959473
2022-09-07T02:56:05.741Z,95.861816
2022-09-07T02:57:13.379Z,95.959473
2022-09-07T02:58:23.015Z,96.063232
2022-09-07T02:59:33.660Z,96.264648
2022-09-07T03:00:42.300Z,96.264648
2022-09-07T03:01:51.058Z,96.362305
2022-09-07T03:02:59.705Z,96.362305
2022-09-07T03:04:09.280Z,96.466064
2022-09-07T03:05:16.917Z,96.66748
2022-09-07T03:06:24.550Z,96.66748
2022-09-07T03:07:35.934Z,96.466064
2022-09-07T03:08:43.858Z,96.362305
2022-09-07T03:09:53.506Z,96.362305
2022-09-07T03:11:03.159Z,96.563721
2022-09-07T03:12:11.795Z,96.563721
2022-09-07T03:13:21.484Z,96.77124
2022-09-07T03:14:29.131Z,96.972656
2022-09-07T03:15:37.793Z,97.174072
2022-09-07T03:16:47.425Z,97.271729
2022-09-07T03:17:56.065Z,97.375488
2022-09-07T03:19:04.726Z,97.375488
2022-09-07T03:20:13.376Z,97.216797
2022-09-07T03:21:22.031Z,97.119141
2022-09-07T03:22:31.681Z,97.119141
2022-09-07T03:23:39.315Z,97.216797
2022-09-07T03:24:46.975Z,97.216797
2022-09-07T03:25:56.630Z,97.015381
2022-09-07T03:27:05.291Z,97.015381
2022-09-07T03:28:13.935Z,97.015381
2022-09-07T03:29:22.584Z,97.015381
2022-09-07T03:30:31.272Z,97.119141
2022-09-07T03:31:40.913Z,97.119141
2022-09-07T03:32:49.557Z,97.015381
2022-09-07T03:33:59.207Z,96.917725
2022-09-07T03:35:08.856Z,96.710205
2022-09-07T03:36:18.528Z,96.710205
2022-09-07T03:37:27.174Z,96.813965
2022-09-07T03:38:36.859Z,96.917725
2022-09-07T03:39:45.575Z,97.015381
2022-09-07T03:40:55.161Z,97.216797
2022-09-07T03:42:02.830Z,97.320557
2022-09-07T03:43:10.473Z,97.418213
2022-09-07T03:44:20.122Z,97.418213
2022-09-07T03:45:27.765Z,97.564697
2022-09-07T03:46:37.416Z,97.668457
2022-09-07T03:47:47.213Z,97.668457
2022-09-07T03:48:55.859Z,97.766113
2022-09-07T03:50:04.573Z,97.821045
2022-09-07T03:51:13.210Z,97.924805
2022-09-07T03:52:22.857Z,97.821045
2022-09-07T03:53:30.525Z,97.723389
2022-09-07T03:54:40.154Z,97.723389
2022-09-07T03:55:49.793Z,97.723389
2022-09-07T03:56:59.437Z,97.723389
2022-09-07T03:58:08.079Z,97.723389
2022-09-07T03:59:16.757Z,97.821045
2022-09-07T04:00:25.420Z,97.821045
2022-09-07T04:01:35.140Z,97.821045
2022-09-07T04:02:42.789Z,97.723389
2022-09-07T04:03:50.362Z,97.418213
2022-09-07T04:05:01.035Z,97.216797
2022-09-07T04:06:09.677Z,97.363281
2022-09-07T04:07:18.326Z,97.467041
2022-09-07T04:08:28.033Z,97.564697
2022-09-07T04:09:37.635Z,97.668457
2022-09-07T04:10:47.304Z,97.766113
2022-09-07T04:11:54.948Z,97.766113
2022-09-07T04:13:03.627Z,97.564697
2022-09-07T04:14:13.280Z,97.564697
2022-09-07T04:15:22.912Z,97.668457
2022-09-07T04:16:31.749Z,97.668457
2022-09-07T04:17:40.386Z,97.668457
2022-09-07T04:18:49.032Z,97.668457
2022-09-07T04:19:58.695Z,97.766113
2022-09-07T04:21:07.386Z,97.766113
2022-09-07T04:22:16.057Z,97.869873
2022-09-07T04:23:25.739Z,97.766113
2022-09-07T04:24:34.377Z,97.564697
2022-09-07T04:25:43.052Z,97.467041
2022-09-07T04:26:51.712Z,97.564697
2022-09-07T04:28:00.403Z,97.30835
2022-09-07T04:29:10.060Z,97.106934
2022-09-07T04:30:17.715Z,97.106934
2022-09-07T04:31:26.503Z,97.210693
2022-09-07T04:32:36.115Z,97.265625
2022-09-07T04:33:44.974Z,96.862793
2022-09-07T04:34:53.666Z,96.862793
2022-09-07T04:36:02.417Z,96.862793
2022-09-07T04:37:11.059Z,96.801758
2022-09-07T04:38:20.743Z,96.502686
2022-09-07T04:39:28.448Z,96.453857
2022-09-07T04:40:36.068Z,96.154785
2022-09-07T04:41:45.736Z,96.154785
2022-09-07T04:42:54.396Z,96.252441
2022-09-07T04:44:03.060Z,96.356201
2022-09-07T04:45:11.750Z,96.356201
2022-09-07T04:46:20.456Z,96.154785
2022-09-07T04:47:30.067Z,96.051025
2022-09-07T04:48:38.719Z,96.051025
2022-09-07T04:49:47.385Z,96.051025
2022-09-07T04:50:57.186Z,95.849609
2022-09-07T04:52:06.846Z,95.751953
2022-09-07T04:53:15.515Z,95.751953
2022-09-07T04:54:24.203Z,95.751953
2022-09-07T04:55:33.857Z,95.550537
2022-09-07T04:56:43.564Z,95.550537
2022-09-07T04:57:51.217Z,95.648193
2022-09-07T04:59:00.888Z,95.349121
2022-09-07T05:00:10.574Z,95.550537
2022-09-07T05:01:19.304Z,95.446777
2022-09-07T05:02:27.936Z,95.648193
2022-09-07T05:03:37.544Z,95.953369
2022-09-07T05:04:46.185Z,95.953369
2022-09-07T05:05:55.846Z,95.648193
2022-09-07T05:07:03.502Z,95.751953
2022-09-07T05:08:12.313Z,95.751953
2022-09-07T05:09:21.977Z,95.794678
2022-09-07T05:10:30.615Z,95.898438
2022-09-07T05:11:40.267Z,95.751953
2022-09-07T05:12:48.925Z,95.953369
2022-09-07T05:13:57.591Z,95.849609
2022-09-07T05:15:07.240Z,95.849609
2022-09-07T05:16:13.950Z,95.953369
2022-09-07T05:17:21.525Z,96.252441
2022-09-07T05:18:31.402Z,95.751953
2022-09-07T05:19:39.863Z,96.051025
2022-09-07T05:20:49.523Z,95.849609
2022-09-07T05:21:58.196Z,95.751953
2022-09-07T05:23:06.851Z,95.648193
2022-09-07T05:24:16.531Z,96.154785
2022-09-07T05:25:24.295Z,95.446777
2022-09-07T05:26:31.952Z,95.349121
2022-09-07T05:27:41.605Z,95.245361
2022-09-07T05:28:50.492Z,95.043945
2022-09-07T05:31:18.273Z,95.300293
2022-09-07T05:32:19.182Z,94.799805
2022-09-07T05:34:39.458Z,94.494629
2022-09-07T05:35:49.128Z,94.799805
2022-09-07T05:36:58.809Z,94.897461
2022-09-07T05:38:07.464Z,94.494629
2022-09-07T05:39:16.112Z,94.293213
2022-09-07T05:40:25.763Z,94.390869
2022-09-07T05:41:34.403Z,94.189453
2022-09-07T05:42:44.114Z,94.091797
2022-09-07T05:45:04.422Z,94.091797
2022-09-07T05:46:14.126Z,93.786621
2022-09-07T05:47:21.731Z,93.688965
2022-09-07T05:48:31.526Z,93.988037
2022-09-07T05:49:40.109Z,93.743896
2022-09-07T05:50:48.741Z,93.341064
2022-09-07T05:51:57.407Z,93.341064
2022-09-07T05:53:06.061Z,93.54248
2022-09-07T05:54:15.773Z,93.54248
2022-09-07T05:55:29.683Z,93.035889
2022-09-07T05:56:32.028Z,93.847656
2022-09-07T05:57:41.696Z,93.395996
2022-09-07T05:58:50.367Z,94.30542
2022-09-07T05:59:59.036Z,94.506836
2022-09-07T06:01:08.699Z,94.561768
2022-09-07T06:02:17.488Z,94.061279
2022-09-07T06:03:27.049Z,92.248535
2022-09-07T06:04:34.686Z,91.845703
2022-09-07T06:05:42.355Z,91.644287
2022-09-07T06:07:17.989Z,91.394043
2022-09-07T06:08:02.618Z,91.998291
2022-09-07T06:09:11.267Z,93.609619
2022-09-07T06:11:29.562Z,93.609619
2022-09-07T06:12:39.222Z,94.616699
2022-09-07T06:13:48.884Z,95.770264
2022-09-07T06:14:57.534Z,96.276855
2022-09-07T06:16:07.237Z,97.180176
2022-09-07T06:17:14.852Z,97.485352
2022-09-07T06:18:23.502Z,98.291016
2022-09-07T06:19:33.150Z,98.693848
2022-09-07T06:20:40.792Z,99.09668
2022-09-07T06:21:50.463Z,99.499512
2022-09-07T06:22:59.136Z,99.798584
2022-09-07T06:24:07.800Z,99.993896
2022-09-07T06:25:17.477Z,99.993896
2022-09-07T06:26:26.115Z,99.993896
2022-09-07T06:27:35.761Z,99.993896
2022-09-07T06:28:46.702Z,99.993896
2022-09-07T06:29:53.096Z,99.993896
2022-09-07T06:31:02.770Z,99.993896
2022-09-07T06:33:21.935Z,99.993896
2022-09-07T06:34:30.681Z,99.993896
2022-09-07T06:35:40.339Z,99.993896
2022-09-07T06:36:48.987Z,99.993896
2022-09-07T06:37:57.638Z,99.993896
2022-09-07T06:39:06.277Z,99.993896
2022-09-07T06:40:16.020Z,99.993896
2022-09-07T06:42:33.208Z,99.993896
2022-09-07T06:43:44.172Z,99.145508
2022-09-07T06:44:52.518Z,99.145508
2022-09-07T06:47:12.802Z,99.102783
2022-09-07T06:48:21.447Z,98.797607
2022-09-07T06:49:31.113Z,98.248291
2022-09-07T06:50:38.757Z,98.748779
2022-09-07T06:51:48.461Z,98.602295
2022-09-07T06:55:18.450Z,95.343018
2022-09-07T06:56:28.117Z,93.933105
2022-09-07T06:57:37.822Z,94.73877
2022-09-07T06:58:47.491Z,93.792725
2022-09-07T06:59:54.141Z,93.286133
2022-09-07T07:01:03.901Z,92.687988
2022-09-07T07:02:13.474Z,91.784668
2022-09-07T07:03:23.224Z,92.08374
2022-09-07T07:04:30.870Z,91.784668
2022-09-07T07:05:41.530Z,92.181396
2022-09-07T07:06:50.212Z,91.540527
2022-09-07T07:07:59.872Z,91.8396
2022-09-07T07:09:07.544Z,90.893555
2022-09-07T07:10:17.920Z,90.74707
2022-09-07T07:11:26.847Z,90.606689
2022-09-07T07:13:32.936Z,88.757324
2022-09-07T07:14:45.045Z,89.0625
2022-09-07T07:15:51.391Z,89.61792
2022-09-07T07:17:00.052Z,89.074707
2022-09-07T07:18:20.709Z,86.773682
2022-09-07T07:19:20.334Z,87.176514
2022-09-07T07:20:30.015Z,86.37085
2022-09-07T07:22:03.381Z,86.175537
2022-09-07T07:22:48.324Z,86.871338
2022-09-07T07:23:57.985Z,86.334229
2022-09-07T07:25:07.648Z,86.590576
2022-09-07T07:26:16.328Z,85.748291
2022-09-07T07:27:23.997Z,84.753418
2022-09-07T07:29:44.280Z,83.813477
2022-09-07T07:30:51.992Z,83.209229
2022-09-07T07:31:59.740Z,84.771729
2022-09-07T07:33:09.439Z,83.630371
2022-09-07T07:34:19.145Z,80.773926
2022-09-07T07:35:28.703Z,80.078125
2022-09-07T07:36:37.367Z,81.915283
2022-09-07T07:37:46.038Z,81.115723
2022-09-07T07:42:27.585Z,80.914307
2022-09-07T07:43:35.258Z,81.274414
2022-09-07T07:44:44.932Z,80.578613
2022-09-07T07:47:04.341Z,80.975342
2022-09-07T07:48:12.889Z,81.176758
2022-09-07T07:49:22.604Z,81.134033
2022-09-07T07:50:32.707Z,81.634521
2022-09-07T07:53:40.967Z,79.400635
2022-09-07T07:54:03.131Z,80.401611
2022-09-07T07:56:21.438Z,76.672363
2022-09-07T07:57:31.085Z,78.326416
2022-09-07T07:58:39.739Z,78.027344
2022-09-07T07:59:54.476Z,77.368164
2022-09-07T08:01:04.367Z,76.470947
2022-09-07T08:02:14.051Z,77.069092
2022-09-07T08:03:23.651Z,76.873779
2022-09-07T08:04:32.376Z,77.868652
2022-09-07T08:05:41.014Z,76.77002
2022-09-07T08:06:50.690Z,74.77417
2022-09-07T08:07:58.363Z,75.775146
2022-09-07T08:09:07.014Z,76.77002
2022-09-07T08:10:16.682Z,76.611328
2022-09-07T08:11:26.361Z,77.508545
2022-09-07T08:12:35.055Z,74.914551
2022-09-07T08:13:43.718Z,74.615479
2022-09-07T08:14:52.395Z,76.208496
2022-09-07T08:16:02.114Z,74.017334
2022-09-07T08:17:09.727Z,74.975586
2022-09-07T08:18:17.448Z,74.377441
2022-09-07T08:19:27.118Z,76.037598
2022-09-07T08:20:35.818Z,73.876953
2022-09-07T08:21:44.501Z,74.938965
2022-09-07T08:22:53.162Z,75.537109
2022-09-07T08:24:01.857Z,74.743652
2022-09-07T08:25:11.541Z,74.243164
2022-09-07T08:26:19.187Z,74.603271
2022-09-07T08:27:26.868Z,73.712158
2022-09-07T08:28:36.546Z,74.005127
2022-09-07T08:29:46.234Z,72.912598
2022-09-07T08:30:54.917Z,75.90332
2022-09-07T08:32:02.651Z,73.309326
2022-09-07T08:33:11.270Z,73.010254
2022-09-07T08:34:22.063Z,73.474121
2022-09-07T08:35:29.655Z,73.175049
2022-09-07T08:36:39.360Z,73.638916
2022-09-07T08:37:49.047Z,72.808838
2022-09-07T08:38:58.708Z,71.97876
2022-09-07T08:40:07.473Z,72.174072
2022-09-07T08:41:17.106Z,71.282959
2022-09-07T08:42:25.844Z,70.684814
2022-09-07T08:43:35.508Z,71.97876
2022-09-07T08:44:44.162Z,70.782471
2022-09-07T08:45:52.002Z,71.514893
2022-09-07T08:47:01.814Z,71.612549
2022-09-07T08:48:10.393Z,71.813965
2022-09-07T08:49:19.053Z,72.711182
2022-09-07T08:50:27.725Z,71.252441
2022-09-07T08:51:37.447Z,71.844482
2022-09-07T08:52:47.268Z,72.875977
2022-09-07T08:53:56.854Z,73.278809
2022-09-07T08:55:04.541Z,73.175049
2022-09-07T08:56:14.219Z,73.474121
2022-09-07T08:57:22.883Z,74.035645
2022-09-07T08:58:48.530Z,73.040771
2022-09-07T08:59:43.181Z,72.045898
2022-09-07T09:01:30.536Z,73.937988
2022-09-07T09:03:28.973Z,71.282959
2022-09-07T09:04:24.473Z,72.814941
2022-09-07T09:05:33.618Z,73.712158
2022-09-07T09:06:41.250Z,73.309326
2022-09-07T09:07:50.853Z,72.277832
2022-09-07T09:09:00.503Z,72.045898
2022-09-07T09:10:10.189Z,71.582031
2022-09-07T09:11:19.871Z,70.587158
2022-09-07T09:12:27.566Z,70.251465
2022-09-07T09:13:36.215Z,71.246338
2022-09-07T09:14:45.889Z,71.508789
2022-09-07T09:15:55.632Z,70.288086
2022-09-07T09:17:04.298Z,69.128418
2022-09-07T09:18:14.491Z,68.334961
2022-09-07T09:19:22.612Z,68.133545
2022-09-07T09:20:32.387Z,67.63916
2022-09-07T09:21:42.183Z,67.608643
2022-09-07T09:22:49.859Z,67.773438
2022-09-07T09:23:59.543Z,66.021729
2022-09-07T09:25:09.209Z,66.912842
2022-09-07T09:26:18.898Z,66.815186
2022-09-07T09:27:28.591Z,66.778564
2022-09-07T09:28:37.561Z,65.594482
2022-09-07T09:29:46.953Z,65.197754
2022-09-07T09:30:54.691Z,66.680908
2022-09-07T09:32:02.278Z,65.594482
2022-09-07T09:33:12.047Z,65.789795
2022-09-07T09:34:23.953Z,64.996338
2022-09-07T09:35:31.352Z,64.569092
2022-09-07T09:36:40.036Z,65.362549
2022-09-07T09:37:47.704Z,64.172363
2022-09-07T09:38:56.394Z,65.167236
2022-09-07T09:40:06.144Z,65.130615
2022-09-07T09:41:15.741Z,64.63623
2022-09-07T09:42:24.441Z,65.991211
2022-09-07T09:43:34.114Z,64.208984
2022-09-07T09:44:43.821Z,64.080811
2022-09-07T09:47:33.183Z,61.51123
2022-09-07T09:48:13.926Z,62.036133
2022-09-07T09:49:22.603Z,61.907959
2022-09-07T09:52:52.591Z,61.37085
2022-09-07T09:54:02.231Z,62.628174
2022-09-07T09:55:32.937Z,61.834717
2022-09-07T09:56:20.591Z,61.676025
2022-09-07T09:57:29.290Z,61.480713
2022-09-07T09:59:59.323Z,61.798096
2022-09-07T10:04:32.242Z,62.463379
2022-09-07T10:05:41.922Z,63.122559
2022-09-07T10:06:51.590Z,63.48877
2022-09-07T10:08:00.369Z,60.424805
2022-09-07T10:09:10.083Z,61.14502
2022-09-07T10:10:18.792Z,62.329102
2022-09-07T10:12:04.914Z,62.628174
2022-09-07T10:12:39.111Z,61.608887
2022-09-07T10:13:47.784Z,61.114502
2022-09-07T10:14:56.573Z,60.919189
2022-09-07T10:16:06.364Z,61.016846
2022-09-07T10:17:15.914Z,62.200928
2022-09-07T10:18:25.661Z,60.620117
2022-09-07T10:19:35.327Z,61.242676
2022-09-07T10:20:44.017Z,61.175537
2022-09-07T10:21:53.701Z,62.786865
2022-09-07T10:23:02.408Z,62.884521
2022-09-07T10:24:11.079Z,62.390137
2022-09-07T10:25:19.993Z,62.487793
2022-09-07T10:26:29.715Z,62.689209
2022-09-07T10:27:39.361Z,62.591553
2022-09-07T10:29:56.673Z,63.311768
2022-09-07T10:31:08.047Z,63.415527
2022-09-07T10:32:16.037Z,64.276123
2022-09-07T10:33:24.700Z,62.884521
2022-09-07T10:34:33.392Z,62.817383
2022-09-07T10:35:42.064Z,63.806152
2022-09-07T10:36:51.782Z,63.806152
2022-09-07T10:38:01.448Z,64.135742
2022-09-07T10:39:10.130Z,64.929199
2022-09-07T10:40:20.696Z,64.465332
2022-09-07T10:41:28.572Z,65.258789
2022-09-07T10:42:38.514Z,65.557861
2022-09-07T10:43:48.962Z,64.562988
2022-09-07T10:44:57.700Z,65.557861
2022-09-07T10:46:07.457Z,65.026855
2022-09-07T10:47:16.696Z,64.831543
2022-09-07T10:48:24.727Z,66.119385
2022-09-07T10:49:34.395Z,65.026855
2022-09-07T10:50:43.119Z,64.434814
2022-09-07T10:51:52.813Z,64.929199
2022-09-07T10:53:13.532Z,64.532471
2022-09-07T10:55:23.805Z,64.135742
2022-09-07T10:56:31.456Z,64.630127
2022-09-07T10:57:40.127Z,64.630127
2022-09-07T10:59:06.327Z,64.831543
2022-09-07T11:00:09.264Z,65.258789
2022-09-07T11:01:12.210Z,65.655518
2022-09-07T11:02:20.848Z,65.161133
2022-09-07T11:03:28.577Z,65.655518
2022-09-07T11:04:38.512Z,65.026855
2022-09-07T11:05:45.857Z,65.527344
2022-09-07T11:06:53.521Z,65.228271
2022-09-07T11:08:03.255Z,65.820312
2022-09-07T11:09:16.428Z,66.217041
2022-09-07T11:10:21.612Z,66.320801
2022-09-07T11:12:40.049Z,65.991211
2022-09-07T11:14:09.213Z,66.021729
2022-09-07T11:15:00.433Z,66.149902
2022-09-07T11:16:09.236Z,66.815186
2022-09-07T11:17:19.764Z,65.228271
2022-09-07T11:18:28.411Z,65.924072
2022-09-07T11:19:38.324Z,66.186523
2022-09-07T11:20:47.900Z,63.482666
2022-09-07T11:21:57.460Z,63.580322
2022-09-07T11:23:08.868Z,63.482666
2022-09-07T11:24:17.780Z,64.074707
2022-09-07T11:25:30.604Z,63.677979
2022-09-07T11:26:37.086Z,63.775635
2022-09-07T11:27:46.742Z,62.988281
2022-09-07T11:30:07.363Z,62.957764
2022-09-07T11:31:17.126Z,63.549805
2022-09-07T11:32:26.707Z,64.013672
2022-09-07T11:33:35.349Z,63.220215
2022-09-07T11:34:45.110Z,63.122559
2022-09-07T11:35:53.715Z,62.792969
2022-09-07T11:37:01.383Z,62.695312
2022-09-07T11:38:11.060Z,62.432861
2022-09-07T11:39:20.716Z,62.5
2022-09-07T11:40:30.409Z,62.597656
2022-09-07T11:41:39.089Z,62.27417
2022-09-07T11:42:47.782Z,62.139893
2022-09-07T11:43:57.440Z,61.157227
2022-09-07T11:45:06.120Z,61.846924
2022-09-07T11:46:15.917Z,60.791016
2022-09-07T11:47:25.561Z,61.804199
2022-09-07T11:48:35.559Z,62.231445
2022-09-07T11:49:49.387Z,62.628174
2022-09-07T11:50:55.560Z,63.250732
2022-09-07T11:52:05.544Z,63.775635
2022-09-07T11:53:14.895Z,64.373779
2022-09-07T11:54:23.579Z,64.239502
2022-09-07T11:55:31.231Z,62.823486
2022-09-07T11:56:45.550Z,63.885498
2022-09-07T11:57:54.964Z,62.402344
2022-09-07T11:59:01.226Z,62.664795
2022-09-07T12:00:09.890Z,61.779785
2022-09-07T12:01:19.578Z,61.749268
2022-09-07T12:02:48.625Z,61.914062
2022-09-07T12:03:39.942Z,61.71875
2022-09-07T12:04:50.823Z,62.310791
2022-09-07T12:05:59.218Z,60.72998
2022-09-07T12:07:07.887Z,61.224365
2022-09-07T12:08:16.586Z,60.72998
2022-09-07T12:09:26.311Z,60.107422
2022-09-07T12:10:35.013Z,60.107422
2022-09-07T12:11:44.685Z,60.375977
2022-09-07T12:12:52.347Z,58.050537
2022-09-07T12:14:00.049Z,57.824707
2022-09-07T12:15:09.853Z,57.501221
2022-09-07T12:16:18.617Z,58.093262
2022-09-07T12:17:28.257Z,58.190918
2022-09-07T12:18:37.864Z,57.696533
2022-09-07T12:19:46.554Z,57.794189
2022-09-07T12:20:56.235Z,58.807373
2022-09-07T12:22:04.935Z,59.960938
2022-09-07T12:23:13.684Z,58.288574
2022-09-07T12:24:23.379Z,58.709717
2022-09-07T12:25:32.053Z,58.966064
2022-09-07T12:26:40.750Z,60.443115
2022-09-07T12:27:49.434Z,61.065674
2022-09-07T12:28:59.106Z,60.540771
2022-09-07T12:30:08.789Z,59.234619
2022-09-07T12:31:16.448Z,59.173584
2022-09-07T12:33:36.944Z,58.361816
2022-09-07T12:34:46.582Z,59.399414
2022-09-07T12:35:56.282Z,58.880615
2022-09-07T12:37:06.793Z,59.527588
2022-09-07T12:38:14.624Z,60.217285
2022-09-07T12:39:24.293Z,59.698486
2022-09-07T12:40:32.006Z,58.587646
2022-09-07T12:41:39.658Z,59.27124
2022-09-07T12:42:50.308Z,58.721924
2022-09-07T12:43:59.037Z,56.92749
2022-09-07T12:45:07.707Z,56.408691
2022-09-07T12:46:16.411Z,57.446289
2022-09-07T12:47:26.067Z,58.92334
2022-09-07T12:48:35.730Z,57.391357
2022-09-07T12:49:44.591Z,56.311035
2022-09-07T12:50:53.169Z,59.063721
2022-09-07T12:52:11.400Z,56.47583
2022-09-07T12:53:13.497Z,55.047607
2022-09-07T12:54:23.152Z,53.649902
2022-09-07T12:55:32.782Z,54.138184
2022-09-07T12:56:42.167Z,52.520752
2022-09-07T12:57:51.572Z,51.831055
2022-09-07T12:59:00.238Z,51.885986
2022-09-07T13:00:06.923Z,53.33252
2022-09-07T13:01:16.749Z,54.833984
2022-09-07T13:02:25.365Z,54.711914
2022-09-07T13:03:51.681Z,54.412842
2022-09-07T13:04:45.717Z,54.980469
2022-09-07T13:05:55.416Z,53.186035
2022-09-07T13:07:05.115Z,53.161621
2022-09-07T13:08:13.754Z,55.603027
2022-09-07T13:09:21.422Z,57.037354
2022-09-07T13:10:31.100Z,57.629395
2022-09-07T13:11:39.786Z,58.190918
2022-09-07T13:12:57.521Z,55.773926
2022-09-07T13:14:04.372Z,54.541016
2022-09-07T13:15:12.658Z,53.601074
2022-09-07T13:16:19.444Z,53.55835
2022-09-07T13:17:27.186Z,54.492188
2022-09-07T13:18:35.892Z,55.999756
2022-09-07T13:19:45.681Z,56.787109
2022-09-07T13:20:55.224Z,55.279541
2022-09-07T13:22:04.922Z,56.292725
2022-09-07T13:23:14.563Z,55.407715
2022-09-07T13:25:34.939Z,55.450439
2022-09-07T13:26:42.600Z,53.851318
2022-09-07T13:27:51.470Z,53.363037
2022-09-07T13:29:00.924Z,53.363037
2022-09-07T13:30:10.628Z,54.736328
2022-09-07T13:31:21.818Z,55.230713
2022-09-07T13:33:39.651Z,54.663086
2022-09-07T13:34:49.389Z,54.864502
2022-09-07T13:35:58.128Z,54.199219
2022-09-07T13:37:07.846Z,55.334473
2022-09-07T13:38:17.495Z,55.926514
2022-09-07T13:39:25.158Z,56.317139
2022-09-07T13:40:34.830Z,56.195068
2022-09-07T13:41:43.523Z,54.199219
2022-09-07T13:42:52.268Z,53.656006
2022-09-07T13:44:00.957Z,53.80249
2022-09-07T13:45:09.615Z,53.851318
2022-09-07T13:46:19.345Z,53.729248